Weather at Montgomery-Gibbs Executive Airport

Public forecast

Using degrees Fahrenheit for public forecast. Weather courtesy of forecast.io.

Current aviation weather report (METAR) for Montgomery-Gibbs Executive Airport

2024/05/25 22:53 (retrieved 7 minutes ago)

KMYF 252253Z 25008KT 10SM OVC018 17/11 A3001 RMK AO2 SLP160 T01670111

Closest aviation forecast (TAF) to Montgomery-Gibbs Executive Airport

Closest forecast is San Diego International Airport, 5.5 nm (10.3 km) SSW.

2024/05/25 21:58 Ammendment (retrieved 1 hour ago)

TAF AMD KSAN 252056Z 2521/2624 27010KT P6SM SCT015 BKN030 FM252300 27010KT P6SM SCT025 BKN035 FM260300 28006KT P6SM OVC025 FM260600 VRB05KT P6SM BKN018 OVC025 FM261900 27010KT P6SM SCT025